Time;durP1;ratioP1;P1;durP2;ratioP2;P2;SDS_P1;SDS_P2;PMS_P1;PMS_P2;Temp;Humidity;BMP_temperature;BMP_pressure;BME280_temperature;BME280_humidity;BME280_pressure;Samples;Min_cycle;Max_cycle;Signal;HPM_P1;HPM_P2
2022/01/12 00:01:42;;;;;;;27.83;10.15;;;4.50;99.90;;;;;;5070398;28;20040;-71
2022/01/12 00:04:11;;;;;;;28.85;10.52;;;4.50;99.90;;;;;;5070358;28;20094;-72
2022/01/12 00:06:37;;;;;;;29.02;10.10;;;4.50;99.80;;;;;;5070822;28;20059;-71
2022/01/12 00:09:10;;;;;;;22.23;10.18;;;4.50;99.80;;;;;;5071850;28;20272;-71
2022/01/12 00:11:39;;;;;;;27.23;10.25;;;4.50;99.70;;;;;;5070142;28;20029;-72
2022/01/12 00:14:04;;;;;;;19.02;9.10;;;4.50;99.80;;;;;;5070978;28;20082;-72
2022/01/12 00:16:31;;;;;;;19.27;9.13;;;4.50;99.70;;;;;;5070464;28;20127;-71
2022/01/12 00:18:56;;;;;;;21.63;9.55;;;4.60;99.70;;;;;;5070610;28;20031;-73
2022/01/12 00:21:22;;;;;;;25.42;9.60;;;4.60;99.70;;;;;;5063837;28;20029;-73
2022/01/12 00:23:48;;;;;;;20.70;8.77;;;4.50;99.60;;;;;;5051277;28;20497;-73
2022/01/12 00:34:51;;;;;;;20.73;9.38;;;4.50;99.80;;;;;;5071085;28;20551;-73
2022/01/12 00:37:16;;;;;;;23.45;8.18;;;4.50;99.70;;;;;;5070526;28;20550;-71
2022/01/12 00:39:42;;;;;;;24.85;8.55;;;4.50;99.70;;;;;;5070848;28;20100;-70
2022/01/12 00:42:16;;;;;;;20.52;8.73;;;4.50;99.70;;;;;;5071327;28;20038;-71
2022/01/12 00:44:45;;;;;;;18.17;8.77;;;4.50;99.70;;;;;;5070197;28;20025;-72
2022/01/12 00:47:11;;;;;;;21.90;8.20;;;4.60;99.70;;;;;;5070617;28;20040;-73
2022/01/12 00:49:37;;;;;;;20.50;8.10;;;4.60;99.80;;;;;;5070116;28;20420;-73
2022/01/12 00:52:03;;;;;;;18.88;7.63;;;4.60;99.60;;;;;;5069775;28;20036;-72
2022/01/12 00:54:29;;;;;;;26.08;8.70;;;4.60;99.60;;;;;;5070491;28;20082;-73
2022/01/12 00:56:54;;;;;;;18.15;8.07;;;4.70;99.60;;;;;;5070467;28;20016;-71
2022/01/12 00:59:20;;;;;;;19.35;8.13;;;4.70;99.60;;;;;;5069193;28;20041;-73
2022/01/12 01:01:46;;;;;;;14.98;7.03;;;4.70;99.40;;;;;;5070576;28;20024;-73
2022/01/12 01:04:11;;;;;;;18.95;8.07;;;4.80;99.40;;;;;;5070334;28;20049;-72
2022/01/12 01:06:37;;;;;;;21.67;9.25;;;4.80;99.40;;;;;;5069677;28;20078;-73
2022/01/12 01:09:04;;;;;;;18.48;7.75;;;4.80;99.50;;;;;;5069979;28;20029;-73
2022/01/12 01:11:30;;;;;;;16.80;7.10;;;4.80;99.50;;;;;;5069649;28;20115;-72
2022/01/12 01:14:01;;;;;;;18.58;7.55;;;4.80;99.40;;;;;;5070280;28;20107;-73
2022/01/12 01:27:26;;;;;;;18.27;7.60;;;4.80;99.20;;;;;;5071035;28;20399;-74
2022/01/12 01:29:54;;;;;;;17.60;6.55;;;4.90;99.30;;;;;;5067894;28;20033;-73
2022/01/12 01:32:20;;;;;;;12.48;6.38;;;4.90;99.20;;;;;;5073551;28;20508;-72
2022/01/12 01:34:48;;;;;;;13.30;6.18;;;4.80;99.10;;;;;;5074830;28;20470;-71
2022/01/12 01:37:14;;;;;;;18.65;6.82;;;4.80;99.10;;;;;;5074525;28;20108;-72
2022/01/12 01:39:40;;;;;;;16.02;7.45;;;4.80;99.10;;;;;;5072663;28;20166;-72
2022/01/12 01:42:16;;;;;;;15.10;6.88;;;4.90;99.10;;;;;;5073896;28;20112;-72
2022/01/12 01:55:28;;;;;;;16.65;6.63;;;5.10;98.70;;;;;;5074292;28;20043;-73
2022/01/12 01:57:54;;;;;;;17.45;7.22;;;5.20;98.80;;;;;;5073765;28;20489;-72
2022/01/12 02:00:25;;;;;;;18.35;7.05;;;5.20;99.00;;;;;;5074441;28;20032;-72
2022/01/12 02:02:53;;;;;;;12.75;5.68;;;5.10;98.80;;;;;;5071765;28;20083;-73
2022/01/12 02:05:19;;;;;;;17.70;6.75;;;5.20;98.80;;;;;;5067161;28;20044;-72
2022/01/12 02:07:45;;;;;;;19.92;6.95;;;5.10;99.10;;;;;;5053695;28;20098;-71
2022/01/12 02:10:10;;;;;;;17.67;6.38;;;5.10;99.00;;;;;;5069317;28;20091;-71
2022/01/12 02:12:36;;;;;;;17.20;6.93;;;5.20;98.90;;;;;;5053667;28;20021;-72
2022/01/12 02:15:17;;;;;;;13.57;6.15;;;5.10;99.10;;;;;;5054628;28;20017;-72
2022/01/12 02:18:00;;;;;;;13.18;6.82;;;5.20;99.20;;;;;;5059151;28;20363;-72
2022/01/12 02:39:45;;;;;;;15.18;6.72;;;5.00;99.60;;;;;;5053169;28;20064;-72
2022/01/12 02:39:56;;;;;;;12.32;6.50;;;5.10;99.70;;;;;;5055841;28;20021;-72
2022/01/12 02:42:23;;;;;;;15.70;6.50;;;5.00;99.70;;;;;;5052975;28;20348;-72
2022/01/12 02:55:46;;;;;;;15.80;6.82;;;5.00;99.60;;;;;;5071388;28;20358;-72
2022/01/12 02:58:12;;;;;;;16.02;6.93;;;5.00;99.60;;;;;;5072966;28;20024;-72
2022/01/12 03:03:20;;;;;;;13.02;5.40;;;5.20;99.10;;;;;;5072992;28;20040;-72
2022/01/12 03:05:54;;;;;;;20.92;6.20;;;5.20;98.70;;;;;;5072196;28;20032;-70
2022/01/12 03:08:23;;;;;;;15.80;5.85;;;5.20;98.60;;;;;;5072730;28;20048;-72
2022/01/12 03:10:49;;;;;;;10.85;4.97;;;5.30;98.70;;;;;;5072899;28;20119;-72
2022/01/12 03:13:14;;;;;;;12.88;5.05;;;5.30;98.30;;;;;;5071765;28;20150;-72
2022/01/12 03:15:43;;;;;;;13.57;4.97;;;5.40;98.20;;;;;;5072353;28;20019;-71
2022/01/12 03:18:09;;;;;;;12.30;4.78;;;5.40;98.00;;;;;;5072232;28;20362;-71
2022/01/12 03:20:34;;;;;;;13.15;4.60;;;5.40;98.10;;;;;;5072501;28;20032;-71
2022/01/12 03:23:00;;;;;;;11.07;4.47;;;5.60;97.80;;;;;;5072402;28;20094;-71
2022/01/12 03:25:26;;;;;;;10.82;4.35;;;5.60;97.40;;;;;;5072355;28;20028;-71
2022/01/12 03:27:58;;;;;;;22.02;4.85;;;5.60;97.30;;;;;;5070939;28;20911;-71
2022/01/12 03:30:23;;;;;;;11.30;4.05;;;5.60;97.20;;;;;;5072727;28;20173;-71
2022/01/12 03:33:04;;;;;;;7.25;3.83;;;5.70;97.00;;;;;;5072323;28;20061;-72
2022/01/12 03:35:48;;;;;;;12.98;4.80;;;5.80;97.30;;;;;;5071113;28;20119;-72
2022/01/12 03:38:20;;;;;;;10.55;4.38;;;5.80;97.00;;;;;;5072050;28;20039;-72
2022/01/12 03:40:49;;;;;;;9.23;4.00;;;5.90;96.80;;;;;;5071275;28;20028;-72
2022/01/12 03:43:18;;;;;;;11.30;4.32;;;5.90;96.70;;;;;;5071849;28;20052;-71
2022/01/12 03:45:47;;;;;;;15.98;4.35;;;5.90;96.70;;;;;;5071837;28;20020;-72
2022/01/12 03:48:13;;;;;;;13.98;3.92;;;5.80;96.10;;;;;;5055414;28;20044;-72
2022/01/12 03:50:39;;;;;;;11.90;3.97;;;5.90;96.30;;;;;;5070472;28;20029;-71
2022/01/12 03:53:05;;;;;;;10.63;4.00;;;6.00;96.40;;;;;;5071587;28;20033;-72
2022/01/12 03:55:30;;;;;;;6.35;3.45;;;6.00;96.30;;;;;;5070735;28;20654;-72
2022/01/12 03:57:56;;;;;;;8.32;3.90;;;6.10;96.20;;;;;;5069922;28;20054;-71
2022/01/12 04:00:21;;;;;;;7.28;3.65;;;6.10;96.10;;;;;;5072117;28;20311;-72
2022/01/12 04:02:47;;;;;;;8.82;3.38;;;6.10;96.20;;;;;;5071236;28;20520;-72
2022/01/12 04:10:41;;;;;;;14.38;3.83;;;6.20;95.90;;;;;;5071420;28;20037;-71
2022/01/12 04:13:07;;;;;;;8.88;3.60;;;6.30;95.90;;;;;;5070218;28;20418;-71
2022/01/12 04:15:32;;;;;;;11.13;4.50;;;6.20;95.60;;;;;;5070852;28;20032;-72
2022/01/12 04:17:58;;;;;;;7.32;3.38;;;6.30;95.70;;;;;;5071521;28;20081;-71
2022/01/12 04:20:23;;;;;;;11.00;3.80;;;6.30;95.80;;;;;;5071329;28;20039;-72
2022/01/12 04:25:33;;;;;;;12.32;4.32;;;6.30;95.40;;;;;;5071083;28;20039;-72
2022/01/12 04:27:59;;;;;;;10.02;3.55;;;6.40;95.40;;;;;;5070918;28;20354;-71
2022/01/12 04:30:25;;;;;;;9.45;3.72;;;6.40;95.40;;;;;;5071573;28;20107;-72
2022/01/12 04:32:50;;;;;;;8.82;3.55;;;6.40;95.10;;;;;;5069877;28;20344;-70
2022/01/12 04:35:17;;;;;;;9.02;3.95;;;6.40;95.20;;;;;;5069363;28;20017;-71
2022/01/12 04:37:43;;;;;;;8.20;3.45;;;6.40;95.10;;;;;;5070921;28;20086;-71
2022/01/12 04:40:09;;;;;;;13.85;4.45;;;6.50;95.20;;;;;;5069784;28;20381;-71
2022/01/12 04:42:36;;;;;;;10.35;3.80;;;6.40;94.90;;;;;;5070950;28;20070;-72
2022/01/12 04:48:08;;;;;;;11.40;4.53;;;6.50;95.00;;;;;;5050088;28;20037;-72
2022/01/12 04:50:37;;;;;;;11.65;3.20;;;6.50;94.90;;;;;;5050754;28;20041;-72
2022/01/12 04:53:03;;;;;;;15.80;4.07;;;6.50;94.70;;;;;;5049875;28;20071;-72
2022/01/12 04:55:29;;;;;;;8.02;3.75;;;6.50;94.70;;;;;;5052464;28;20112;-71
2022/01/12 04:57:55;;;;;;;10.65;4.07;;;6.60;95.00;;;;;;5070693;28;20115;-71
2022/01/12 05:00:22;;;;;;;15.10;4.30;;;6.50;94.80;;;;;;5070606;28;20112;-71
2022/01/12 05:13:32;;;;;;;14.05;5.45;;;6.60;94.70;;;;;;5070752;28;20040;-71
2022/01/12 05:15:58;;;;;;;10.07;4.13;;;6.60;94.70;;;;;;5069309;28;20036;-71
2022/01/12 05:18:24;;;;;;;10.05;3.95;;;6.60;94.60;;;;;;5069214;28;20037;-71
2022/01/12 05:20:50;;;;;;;12.45;4.10;;;6.60;94.50;;;;;;5069252;28;20572;-72
2022/01/12 05:23:15;;;;;;;12.00;4.88;;;6.60;94.60;;;;;;5068871;28;20124;-71
2022/01/12 05:25:41;;;;;;;12.60;4.80;;;6.50;94.40;;;;;;5070488;28;20037;-71
2022/01/12 05:28:07;;;;;;;8.13;4.35;;;6.60;95.00;;;;;;5070254;28;20048;-71
2022/01/12 05:30:33;;;;;;;18.58;5.93;;;6.60;95.30;;;;;;5069209;28;20032;-71
2022/01/12 05:32:59;;;;;;;11.90;5.60;;;6.60;95.50;;;;;;5070115;28;20115;-70
2022/01/12 05:35:31;;;;;;;11.48;5.55;;;6.50;95.90;;;;;;5069828;28;20032;-72
2022/01/12 05:37:58;;;;;;;17.08;6.55;;;6.40;96.30;;;;;;5070569;28;20094;-71
2022/01/12 05:40:24;;;;;;;17.35;6.38;;;6.30;96.70;;;;;;5069775;28;20041;-71
2022/01/12 05:42:51;;;;;;;18.02;6.90;;;6.30;97.00;;;;;;5050121;28;20132;-71
2022/01/12 05:45:18;;;;;;;19.17;7.10;;;6.30;97.10;;;;;;5049786;28;20032;-71
2022/01/12 05:50:11;;;;;;;19.17;7.38;;;6.20;97.10;;;;;;5050307;28;20037;-70
2022/01/12 05:52:37;;;;;;;15.38;7.88;;;6.10;97.30;;;;;;5068735;28;20029;-72
2022/01/12 05:55:03;;;;;;;17.65;7.72;;;6.10;97.40;;;;;;5070172;28;20033;-71
2022/01/12 05:57:30;;;;;;;15.52;7.60;;;6.20;97.50;;;;;;5068474;28;20115;-72
2022/01/12 05:59:59;;;;;;;16.88;7.28;;;6.20;97.40;;;;;;5069941;28;20387;-72
2022/01/12 06:02:25;;;;;;;21.85;8.13;;;6.20;97.40;;;;;;5069857;28;20082;-72
2022/01/12 06:04:51;;;;;;;21.38;8.23;;;6.10;97.40;;;;;;5069866;28;20041;-71
2022/01/12 06:07:17;;;;;;;18.13;8.25;;;6.20;97.40;;;;;;5068447;28;20060;-71
2022/01/12 06:09:43;;;;;;;20.30;7.82;;;6.10;97.50;;;;;;5069204;28;20048;-71
2022/01/12 06:12:09;;;;;;;19.60;8.05;;;6.20;97.60;;;;;;5068571;28;20390;-73
2022/01/12 06:14:35;;;;;;;17.52;8.18;;;6.10;97.50;;;;;;5069800;28;20024;-71
2022/01/12 06:17:00;;;;;;;18.55;7.88;;;6.10;97.60;;;;;;5069245;28;20462;-71
2022/01/12 06:19:26;;;;;;;24.35;8.27;;;6.00;97.70;;;;;;5071361;28;20066;-73
2022/01/12 06:21:51;;;;;;;17.08;8.65;;;6.10;97.80;;;;;;5072491;28;20520;-72
2022/01/12 06:24:17;;;;;;;23.90;8.55;;;6.10;97.80;;;;;;5073038;28;20017;-71
2022/01/12 06:26:43;;;;;;;18.90;8.60;;;6.10;97.90;;;;;;5066444;28;20036;-71
2022/01/12 06:31:41;;;;;;;20.75;9.02;;;6.10;98.10;;;;;;5058501;28;20025;-72
2022/01/12 06:34:07;;;;;;;16.55;8.50;;;6.10;98.40;;;;;;5069323;28;20477;-74
2022/01/12 06:36:32;;;;;;;17.25;8.98;;;6.00;98.60;;;;;;5053805;28;20200;-71
2022/01/12 06:38:58;;;;;;;16.92;8.38;;;6.00;98.60;;;;;;5069419;28;20057;-72
2022/01/12 06:41:24;;;;;;;18.70;8.75;;;6.10;98.70;;;;;;5053319;28;20036;-72
2022/01/12 06:43:51;;;;;;;26.98;12.57;;;6.00;98.60;;;;;;5053264;28;20053;-72
2022/01/12 06:46:22;;;;;;;21.35;9.30;;;6.10;98.70;;;;;;5057381;28;20493;-72
2022/01/12 06:48:48;;;;;;;20.55;9.43;;;6.10;98.60;;;;;;5071514;28;20044;-73
2022/01/12 06:51:14;;;;;;;20.33;9.57;;;6.10;98.70;;;;;;5073675;28;20471;-73
2022/01/12 06:53:40;;;;;;;20.80;9.85;;;6.20;98.60;;;;;;5072181;28;20032;-73
2022/01/12 06:56:06;;;;;;;16.85;8.93;;;6.30;98.60;;;;;;5055847;28;20033;-72
2022/01/12 06:58:31;;;;;;;18.45;8.98;;;6.30;98.50;;;;;;5068403;28;20033;-74
2022/01/12 07:00:57;;;;;;;20.95;9.15;;;6.10;98.40;;;;;;5057528;28;20345;-72
2022/01/12 07:03:22;;;;;;;23.98;10.20;;;6.20;98.70;;;;;;5071946;28;20473;-71
2022/01/12 07:05:48;;;;;;;20.60;9.82;;;6.20;98.60;;;;;;5060592;28;20036;-72
2022/01/12 07:08:14;;;;;;;22.23;8.95;;;6.10;98.70;;;;;;5058917;28;20048;-72
2022/01/12 07:10:40;;;;;;;22.27;9.77;;;6.20;98.70;;;;;;5053714;28;20033;-71
2022/01/12 07:13:10;;;;;;;17.58;9.30;;;6.20;98.80;;;;;;5052679;28;20478;-73
2022/01/12 07:15:37;;;;;;;26.52;10.35;;;6.20;98.70;;;;;;5066312;28;20116;-70
2022/01/12 07:18:06;;;;;;;19.73;9.93;;;6.30;98.90;;;;;;5060984;28;20061;-71
2022/01/12 07:20:32;;;;;;;23.65;10.65;;;6.20;98.80;;;;;;5052692;28;20090;-71
2022/01/12 07:22:57;;;;;;;20.85;10.18;;;6.20;98.80;;;;;;5053391;28;20677;-73
2022/01/12 07:25:23;;;;;;;24.23;10.63;;;6.20;99.00;;;;;;5053878;28;20063;-71
2022/01/12 07:27:49;;;;;;;20.33;10.23;;;6.20;99.00;;;;;;5057091;28;20374;-72
2022/01/12 07:30:14;;;;;;;24.88;11.00;;;6.20;99.20;;;;;;5072403;28;20442;-71
2022/01/12 07:32:40;;;;;;;22.63;11.48;;;6.20;99.20;;;;;;5069676;28;20030;-73
2022/01/12 07:35:07;;;;;;;22.98;11.32;;;6.20;99.30;;;;;;5054003;28;20466;-72
2022/01/12 07:37:32;;;;;;;19.88;10.70;;;6.30;99.20;;;;;;5067762;28;20036;-72
2022/01/12 07:39:58;;;;;;;27.23;11.63;;;6.40;99.10;;;;;;5071211;28;20060;-74
2022/01/12 07:42:24;;;;;;;21.98;11.20;;;6.30;99.10;;;;;;5072256;28;20446;-73
2022/01/12 07:44:58;;;;;;;26.65;12.05;;;6.60;99.30;;;;;;5071671;28;20079;-71
2022/01/12 07:47:24;;;;;;;35.00;12.02;;;6.50;99.20;;;;;;5068472;28;20494;-72
2022/01/12 07:49:50;;;;;;;24.35;12.00;;;6.30;99.40;;;;;;5071767;28;20043;-72
2022/01/12 07:52:15;;;;;;;30.65;12.75;;;6.40;99.40;;;;;;5071785;28;20040;-72
2022/01/12 07:54:41;;;;;;;30.05;13.02;;;6.40;99.40;;;;;;5070861;28;20032;-73
2022/01/12 07:57:06;;;;;;;32.10;13.63;;;6.40;99.50;;;;;;5071273;28;20020;-72
2022/01/12 07:59:32;;;;;;;32.22;13.45;;;6.40;99.50;;;;;;5061221;28;20040;-72
2022/01/12 08:01:57;;;;;;;38.67;15.57;;;6.30;99.60;;;;;;5050555;28;20410;-73
2022/01/12 08:04:23;;;;;;;38.42;15.07;;;6.30;99.90;;;;;;5056498;28;20043;-71
2022/01/12 08:06:48;;;;;;;31.95;15.20;;;6.30;99.90;;;;;;5055000;28;20481;-70
2022/01/12 08:09:14;;;;;;;34.58;15.93;;;6.40;99.90;;;;;;5051975;28;20029;-70
2022/01/12 08:11:39;;;;;;;35.42;15.82;;;6.40;99.90;;;;;;5051866;28;20458;-71
2022/01/12 08:14:05;;;;;;;35.92;16.20;;;6.60;99.80;;;;;;5070545;28;20485;-72
2022/01/12 08:16:31;;;;;;;37.97;17.25;;;6.50;99.90;;;;;;5054863;28;20033;-71
2022/01/12 08:18:56;;;;;;;33.22;16.80;;;6.40;99.90;;;;;;5050839;28;20022;-72
2022/01/12 08:21:23;;;;;;;40.90;17.95;;;6.30;99.90;;;;;;5068976;28;20347;-74
2022/01/12 08:23:48;;;;;;;38.63;17.67;;;6.30;99.90;;;;;;5070610;28;20433;-73
2022/01/12 08:26:14;;;;;;;38.65;18.13;;;6.20;99.90;;;;;;5070503;28;20032;-74
2022/01/12 08:28:40;;;;;;;50.67;19.25;;;6.10;99.90;;;;;;5071496;28;20033;-74
2022/01/12 08:31:05;;;;;;;39.15;16.90;;;6.10;99.90;;;;;;5056534;28;20522;-73
2022/01/12 08:33:32;;;;;;;42.10;19.30;;;6.10;99.90;;;;;;5066996;28;20044;-74
2022/01/12 08:35:58;;;;;;;42.60;19.13;;;6.10;99.90;;;;;;5056153;28;20020;-73
2022/01/12 08:38:23;;;;;;;36.63;18.67;;;6.00;99.90;;;;;;5069130;28;20374;-72
2022/01/12 08:40:49;;;;;;;42.25;19.35;;;6.10;99.90;;;;;;5070637;28;20082;-73
2022/01/12 08:43:15;;;;;;;45.28;19.35;;;6.20;99.90;;;;;;5070150;28;20025;-74
2022/01/12 08:45:52;;;;;;;45.28;19.10;;;6.10;99.90;;;;;;5066414;28;20108;-75
2022/01/12 08:48:18;;;;;;;52.30;19.55;;;6.00;99.90;;;;;;5051792;28;20028;-74
2022/01/12 08:50:44;;;;;;;40.72;19.02;;;6.00;99.90;;;;;;5058401;28;20036;-75
2022/01/12 08:53:09;;;;;;;44.60;20.35;;;6.10;99.90;;;;;;5071111;28;20103;-74
2022/01/12 08:55:35;;;;;;;39.85;19.75;;;6.30;99.90;;;;;;5068087;28;20039;-74
2022/01/12 08:58:00;;;;;;;43.97;19.90;;;6.30;99.90;;;;;;5066392;28;20040;-74
2022/01/12 09:00:27;;;;;;;45.65;20.75;;;6.30;99.90;;;;;;5050285;28;20094;-75
2022/01/12 09:02:52;;;;;;;42.78;20.52;;;6.30;99.90;;;;;;5049655;28;20053;-75
2022/01/12 09:05:18;;;;;;;46.58;20.02;;;6.30;99.90;;;;;;5050574;28;20043;-75
2022/01/12 09:07:43;;;;;;;39.35;20.60;;;6.30;99.90;;;;;;5061795;28;20428;-72
2022/01/12 09:10:10;;;;;;;45.33;21.02;;;6.20;99.90;;;;;;5069420;28;20043;-76
2022/01/12 09:12:36;;;;;;;48.80;22.35;;;6.30;99.90;;;;;;5070590;28;20021;-77
2022/01/12 09:15:07;;;;;;;49.55;20.88;;;6.40;99.90;;;;;;5070862;28;20033;-77
2022/01/12 09:17:33;;;;;;;43.70;21.48;;;6.30;99.90;;;;;;5069670;28;20032;-76
2022/01/12 09:19:58;;;;;;;46.70;21.52;;;6.30;99.90;;;;;;5069459;28;20036;-76
2022/01/12 09:22:24;;;;;;;47.30;21.48;;;6.20;99.90;;;;;;5069329;28;20048;-76
2022/01/12 09:24:50;;;;;;;51.13;20.13;;;6.20;99.90;;;;;;5068781;28;20562;-76
2022/01/12 09:27:17;;;;;;;54.08;23.27;;;6.20;99.90;;;;;;5070926;28;20055;-75
2022/01/12 09:29:44;;;;;;;51.20;22.45;;;6.30;99.90;;;;;;5068781;28;20128;-75
2022/01/12 09:32:10;;;;;;;52.08;22.95;;;6.30;99.90;;;;;;5070625;28;20459;-75
2022/01/12 09:34:36;;;;;;;49.78;22.90;;;6.20;99.90;;;;;;5069729;28;20285;-75
2022/01/12 09:37:03;;;;;;;53.92;23.05;;;6.20;99.90;;;;;;5068782;28;20067;-75
2022/01/12 09:39:29;;;;;;;55.67;24.20;;;6.20;99.90;;;;;;5069838;28;20039;-75
2022/01/12 09:41:55;;;;;;;56.83;22.98;;;6.30;99.90;;;;;;5070529;28;20462;-77
2022/01/12 09:44:32;;;;;;;53.92;22.85;;;6.30;99.90;;;;;;5070310;28;20040;-77
2022/01/12 09:47:00;;;;;;;46.00;22.90;;;6.40;99.90;;;;;;5068533;28;20514;-78
2022/01/12 09:49:25;;;;;;;51.75;23.30;;;6.40;99.90;;;;;;5068767;28;20045;-75
2022/01/12 09:51:51;;;;;;;54.83;23.85;;;6.40;99.90;;;;;;5067389;28;20043;-75
2022/01/12 09:54:18;;;;;;;48.30;22.65;;;6.40;99.90;;;;;;5069679;28;20370;-79
2022/01/12 09:56:44;;;;;;;51.53;24.45;;;6.50;99.90;;;;;;5066781;28;20063;-81
2022/01/12 09:59:10;;;;;;;46.08;22.45;;;6.50;99.90;;;;;;5071935;28;20028;-82
2022/01/12 10:01:43;;;;;;;48.90;23.70;;;6.60;99.90;;;;;;5074155;28;20379;-80
2022/01/12 10:04:11;;;;;;;51.28;21.65;;;6.50;99.90;;;;;;5072944;28;20048;-77
2022/01/12 10:06:40;;;;;;;;;;;6.60;99.90;;;;;;5073067;28;20017;-81
2022/01/12 10:09:06;;;;;;;53.25;23.40;;;6.50;99.90;;;;;;5073653;28;19920;-79
2022/01/12 10:11:33;;;;;;;49.05;22.42;;;6.50;99.90;;;;;;5072789;28;20424;-80
2022/01/12 10:14:00;;;;;;;54.75;23.58;;;6.40;99.90;;;;;;5073626;28;20119;-80
2022/01/12 10:16:26;;;;;;;50.00;24.15;;;6.40;99.90;;;;;;5072496;28;20704;-78
2022/01/12 10:18:58;;;;;;;52.60;24.05;;;6.40;99.90;;;;;;5073897;28;20038;-79
2022/01/12 10:21:37;;;;;;;51.30;23.92;;;6.50;99.90;;;;;;5055393;28;20082;-79
2022/01/12 10:24:06;;;;;;;50.33;24.25;;;6.60;99.90;;;;;;5058972;28;20043;-77
2022/01/12 10:26:43;;;;;;;53.25;23.05;;;6.60;99.90;;;;;;5074455;28;20029;-76
2022/01/12 10:29:21;;;;;;;49.33;23.17;;;6.70;99.90;;;;;;5072440;28;20097;-77
2022/01/12 10:31:57;;;;;;;48.90;24.23;;;6.70;99.90;;;;;;5072178;28;20489;-79
2022/01/12 10:34:25;;;;;;;41.53;21.90;;;6.60;99.90;;;;;;5072843;28;20161;-77
2022/01/12 10:36:53;;;;;;;54.95;24.25;;;6.60;99.90;;;;;;5073351;28;20044;-83
2022/01/12 10:39:21;;;;;;;54.00;24.00;;;6.70;99.90;;;;;;5072741;28;20031;-76
2022/01/12 10:42:05;;;;;;;53.05;24.90;;;6.70;99.90;;;;;;5073404;28;20036;-78
2022/01/12 10:44:34;;;;;;;47.20;21.30;;;6.70;99.90;;;;;;5071470;28;20120;-77
2022/01/12 10:47:07;;;;;;;45.53;22.05;;;6.80;99.90;;;;;;5070896;28;20117;-76
2022/01/12 10:49:35;;;;;;;56.17;23.40;;;6.90;99.90;;;;;;5072497;28;20044;-77
2022/01/12 10:52:00;;;;;;;48.22;22.40;;;6.90;99.90;;;;;;5072064;28;20431;-77
2022/01/12 10:54:26;;;;;;;51.22;22.60;;;6.80;99.90;;;;;;5073732;28;20032;-79
2022/01/12 10:56:52;;;;;;;50.30;22.67;;;7.00;99.90;;;;;;5071112;28;20411;-78
2022/01/12 10:59:20;;;;;;;51.22;23.80;;;7.00;99.90;;;;;;5072639;28;20048;-76
2022/01/12 11:01:46;;;;;;;50.00;23.63;;;7.00;99.90;;;;;;5070698;28;20025;-73
2022/01/12 11:04:12;;;;;;;53.25;23.65;;;7.00;99.90;;;;;;5071093;28;20042;-75
2022/01/12 11:06:38;;;;;;;48.75;23.50;;;7.00;99.90;;;;;;5070948;28;20024;-76
2022/01/12 11:09:07;;;;;;;48.70;23.35;;;7.20;99.90;;;;;;5071131;28;20040;-76
2022/01/12 11:11:34;;;;;;;52.65;23.10;;;7.20;99.90;;;;;;5051572;28;20025;-77
2022/01/12 11:14:00;;;;;;;50.25;22.95;;;7.20;99.90;;;;;;5054236;28;20025;-78
2022/01/12 11:16:28;;;;;;;49.85;22.45;;;7.20;99.90;;;;;;5070832;28;20064;-76
2022/01/12 11:18:54;;;;;;;59.40;23.20;;;7.40;99.90;;;;;;5072797;28;20101;-77
2022/01/12 11:21:43;;;;;;;50.53;21.48;;;7.50;99.90;;;;;;5068935;28;20043;-76
2022/01/12 11:24:14;;;;;;;48.50;22.70;;;7.60;99.90;;;;;;5058235;28;20488;-75
2022/01/12 11:26:52;;;;;;;53.00;23.42;;;7.60;99.90;;;;;;5072203;28;20652;-75
2022/01/12 11:29:38;;;;;;;57.33;23.80;;;7.70;99.90;;;;;;5072110;28;20025;-75
2022/01/12 11:32:11;;;;;;;52.92;23.05;;;7.60;99.90;;;;;;5071018;28;20024;-74
2022/01/12 11:34:36;;;;;;;53.17;22.98;;;7.30;99.90;;;;;;5070846;28;20397;-71
2022/01/12 11:37:16;;;;;;;50.67;23.60;;;7.30;99.90;;;;;;5071065;28;20036;-72
2022/01/12 11:39:42;;;;;;;53.20;23.00;;;7.50;99.90;;;;;;5071878;28;20094;-76
2022/01/12 11:42:08;;;;;;;48.13;22.80;;;7.60;99.90;;;;;;5072464;28;20151;-77
2022/01/12 11:44:36;;;;;;;49.55;22.65;;;7.60;99.90;;;;;;5070198;28;20108;-76
2022/01/12 11:47:04;;;;;;;49.55;23.02;;;7.70;99.90;;;;;;5071756;28;20125;-78
2022/01/12 11:49:40;;;;;;;55.45;25.85;;;7.70;99.90;;;;;;5070801;28;20071;-77
2022/01/12 11:52:19;;;;;;;45.92;22.10;;;7.80;99.90;;;;;;5071304;28;20033;-74
2022/01/12 11:54:47;;;;;;;46.25;21.40;;;7.70;99.90;;;;;;5070800;28;20040;-76
2022/01/12 11:57:18;;;;;;;55.35;23.30;;;7.50;99.90;;;;;;5071662;28;20458;-74
2022/01/12 12:00:00;;;;;;;49.80;23.77;;;7.60;99.90;;;;;;5051251;28;20036;-74
2022/01/12 12:02:36;;;;;;;47.72;21.55;;;7.60;99.90;;;;;;5060814;28;20529;-74
2022/01/12 12:05:07;;;;;;;49.58;22.30;;;7.60;99.90;;;;;;5071573;28;20033;-76
2022/01/12 12:07:47;;;;;;;49.40;22.75;;;7.70;99.90;;;;;;5068532;28;20457;-75
2022/01/12 12:10:15;;;;;;;46.40;21.98;;;7.70;99.90;;;;;;5054560;28;20423;-75
2022/01/12 12:12:43;;;;;;;56.65;23.02;;;7.60;99.90;;;;;;5071583;28;20143;-75
2022/01/12 12:15:11;;;;;;;49.42;21.95;;;7.40;99.90;;;;;;5070423;28;20412;-74
2022/01/12 12:17:39;;;;;;;48.15;21.08;;;7.50;99.90;;;;;;5071732;28;20025;-75
2022/01/12 12:20:08;;;;;;;52.30;19.90;;;7.40;99.90;;;;;;5072006;28;20432;-74
2022/01/12 12:22:38;;;;;;;43.80;17.67;;;7.30;99.90;;;;;;5071121;28;20274;-74
2022/01/12 12:25:09;;;;;;;39.38;16.15;;;7.10;99.90;;;;;;5070454;28;20024;-78
2022/01/12 12:27:36;;;;;;;39.33;17.30;;;7.40;99.90;;;;;;5072434;28;20016;-75
2022/01/12 12:30:07;;;;;;;45.33;19.93;;;7.50;99.90;;;;;;5065546;28;20569;-77
2022/01/12 12:32:39;;;;;;;44.92;19.33;;;7.50;99.90;;;;;;5063580;28;20261;-74
2022/01/12 12:35:08;;;;;;;43.17;18.52;;;7.60;99.90;;;;;;5070719;28;20025;-74
2022/01/12 12:37:53;;;;;;;37.40;17.08;;;7.60;99.90;;;;;;5069863;28;20025;-75
2022/01/12 12:40:19;;;;;;;48.78;17.35;;;7.50;99.90;;;;;;5066302;28;20033;-76
2022/01/12 12:42:49;;;;;;;43.50;17.63;;;7.70;99.90;;;;;;5059968;28;20082;-77
2022/01/12 12:45:15;;;;;;;40.97;18.67;;;7.60;99.90;;;;;;5066139;28;20085;-78
2022/01/12 12:47:42;;;;;;;40.83;17.73;;;7.70;99.90;;;;;;5059484;28;20491;-79
2022/01/12 12:50:12;;;;;;;38.15;17.88;;;7.60;99.90;;;;;;5070128;28;20036;-78
2022/01/12 12:52:40;;;;;;;43.40;18.40;;;7.70;99.90;;;;;;5070563;28;20036;-83
2022/01/12 12:55:16;;;;;;;53.45;18.63;;;7.90;99.90;;;;;;5051327;28;20053;-76
2022/01/12 12:57:51;;;;;;;57.92;19.85;;;8.10;99.90;;;;;;5054411;28;20160;-81
2022/01/12 13:00:23;;;;;;;47.80;18.70;;;8.00;99.90;;;;;;5066685;28;20086;-78
2022/01/12 13:02:51;;;;;;;42.20;18.13;;;7.90;99.80;;;;;;5070511;28;20059;-78
2022/01/12 13:05:20;;;;;;;43.20;17.77;;;8.00;99.90;;;;;;5070428;28;20450;-78
2022/01/12 13:07:47;;;;;;;43.42;18.33;;;8.10;99.90;;;;;;5067658;28;20458;-82
2022/01/12 13:10:16;;;;;;;48.03;17.48;;;8.10;99.70;;;;;;5058265;28;20114;-78
2022/01/12 13:12:46;;;;;;;41.33;16.88;;;8.00;99.80;;;;;;5058195;28;20510;-78
2022/01/12 13:15:25;;;;;;;39.67;17.92;;;8.10;99.90;;;;;;5068380;28;20568;-74
2022/01/12 13:18:14;;;;;;;42.22;18.13;;;8.20;99.80;;;;;;5064477;28;20041;-76
2022/01/12 13:23:41;;;;;;;45.40;18.45;;;8.00;99.80;;;;;;5050154;28;20511;-77
2022/01/12 13:26:12;;;;;;;37.72;17.10;;;7.90;99.90;;;;;;5054212;28;20178;-76
2022/01/12 13:28:40;;;;;;;37.42;18.20;;;8.00;99.90;;;;;;5057134;28;20037;-75
2022/01/12 13:31:09;;;;;;;37.97;18.33;;;8.00;99.90;;;;;;5070382;28;20039;-77
2022/01/12 13:33:45;;;;;;;39.78;18.08;;;7.90;99.90;;;;;;5060879;28;20033;-78
2022/01/12 13:36:32;;;;;;;50.70;18.85;;;7.80;99.90;;;;;;5073425;28;20094;-77
2022/01/12 13:39:05;;;;;;;46.08;18.88;;;7.80;99.90;;;;;;5060260;28;20033;-76
2022/01/12 13:41:34;;;;;;;47.00;20.23;;;7.80;99.90;;;;;;5054122;28;20037;-79
2022/01/12 13:44:07;;;;;;;46.75;18.85;;;7.80;99.90;;;;;;5055032;28;20045;-76
2022/01/12 13:46:36;;;;;;;43.85;18.30;;;7.90;99.90;;;;;;5060887;28;20044;-77
2022/01/12 13:51:43;;;;;;;47.72;19.35;;;8.10;99.90;;;;;;5055445;28;20113;-78
2022/01/12 13:54:12;;;;;;;41.65;17.23;;;8.10;99.90;;;;;;5038616;28;20021;-77
2022/01/12 13:56:57;;;;;;;42.53;18.25;;;7.90;99.90;;;;;;5052883;28;20367;-76
2022/01/12 13:59:25;;;;;;;42.88;17.95;;;7.90;99.90;;;;;;5054128;28;20029;-79
2022/01/12 14:01:51;;;;;;;41.17;17.92;;;8.00;99.90;;;;;;5044020;28;20323;-77
2022/01/12 14:07:29;;;;;;;41.88;17.75;;;8.10;99.90;;;;;;5028962;28;20057;-76
2022/01/12 14:09:57;;;;;;;47.85;18.15;;;8.00;99.90;;;;;;5032372;28;20405;-78
2022/01/12 14:12:24;;;;;;;40.60;17.88;;;8.00;99.90;;;;;;5039896;28;20054;-79
2022/01/12 14:15:06;;;;;;;45.78;18.85;;;8.10;99.90;;;;;;5049065;28;20090;-79
2022/01/12 14:17:36;;;;;;;40.05;16.80;;;8.10;99.90;;;;;;5043504;28;20029;-77
2022/01/12 14:20:20;;;;;;;45.67;18.45;;;8.20;99.90;;;;;;5035056;28;20033;-77
2022/01/12 14:22:52;;;;;;;44.75;18.63;;;8.20;99.90;;;;;;5031698;28;20047;-74
2022/01/12 14:25:21;;;;;;;43.75;17.58;;;8.30;99.90;;;;;;5033362;28;20117;-77